Time;durP1;ratioP1;P1;durP2;ratioP2;P2;SDS_P1;SDS_P2;PMS_P1;PMS_P2;Temp;Humidity;BMP_temperature;BMP_pressure;BME280_temperature;BME280_humidity;BME280_pressure;Samples;Min_cycle;Max_cycle;Signal;HPM_P1;HPM_P2
2023/11/05 02:10:13;;;;;;;0.20;0.20;;;;;;;17.26;100.00;98856.97;4762592;26;20043;-85
2023/11/05 03:49:28;;;;;;;0.20;0.20;;;;;;;17.59;100.00;98818.34;5024848;28;20540;-83
2023/11/05 03:59:32;;;;;;;0.20;0.20;;;;;;;17.85;100.00;98846.63;5024257;28;20075;-85
2023/11/05 04:12:54;;;;;;;0.20;0.20;;;;;;;17.74;100.00;98846.91;5015912;28;20139;-82
2023/11/05 04:31:46;;;;;;;0.20;0.20;;;;;;;17.89;100.00;98852.91;5151296;23;20061;-85
2023/11/05 04:53:34;;;;;;;0.20;0.20;;;;;;;18.03;100.00;98844.06;5029479;28;20119;-82
2023/11/05 05:06:54;;;;;;;0.20;0.20;;;;;;;17.98;100.00;98824.94;5015469;28;20096;-85
2023/11/05 05:09:20;;;;;;;0.20;0.20;;;;;;;17.90;100.00;98803.88;5014939;28;20037;-83
2023/11/05 06:28:50;;;;;;;0.20;0.20;;;;;;;19.04;100.00;98820.06;5035054;28;20057;-82
2023/11/05 06:31:17;;;;;;;0.20;0.20;;;;;;;19.05;98.40;98799.09;5016886;28;20494;-83
2023/11/05 06:37:55;;;;;;;0.20;0.20;;;;;;;19.24;98.93;98814.97;5023319;28;20537;-82
2023/11/05 06:40:52;;;;;;;0.20;0.20;;;;;;;19.27;100.00;98802.75;5009774;28;20038;-82
2023/11/05 06:46:40;;;;;;;0.20;0.20;;;;;;;18.95;100.00;98780.50;5015775;28;20069;-88
2023/11/05 06:53:08;;;;;;;0.20;0.20;;;;;;;19.32;100.00;98821.91;5019098;28;20077;-83
2023/11/05 06:55:36;;;;;;;0.20;0.20;;;;;;;19.12;100.00;98787.56;5017804;28;20034;-84
2023/11/05 06:58:01;;;;;;;0.20;0.20;;;;;;;19.37;100.00;98843.13;4982131;28;20052;-86
2023/11/05 07:00:29;;;;;;;0.20;0.20;;;;;;;19.45;100.00;98829.59;4999365;28;20533;-84
2023/11/05 07:02:55;;;;;;;0.20;0.20;;;;;;;19.38;100.00;98830.59;4996915;28;20030;-86
2023/11/05 07:05:20;;;;;;;0.20;0.20;;;;;;;19.32;100.00;98816.28;4996617;28;20025;-87
2023/11/05 07:07:46;;;;;;;0.25;0.25;;;;;;;19.33;100.00;98834.81;4995982;28;20030;-86
2023/11/05 07:10:11;;;;;;;0.20;0.20;;;;;;;19.44;100.00;98830.81;4996206;28;20021;-88
2023/11/05 07:12:41;;;;;;;0.20;0.20;;;;;;;19.42;100.00;98819.19;4996097;28;20037;-88
2023/11/05 07:15:07;;;;;;;0.20;0.20;;;;;;;19.53;100.00;98836.53;4996151;28;20064;-87
2023/11/05 07:17:33;;;;;;;0.20;0.20;;;;;;;19.55;100.00;98846.13;4996259;28;20444;-87
2023/11/05 07:19:59;;;;;;;0.20;0.20;;;;;;;19.40;100.00;98799.91;4996916;28;20025;-86
2023/11/05 07:22:25;;;;;;;0.20;0.20;;;;;;;19.38;100.00;98797.53;4995890;28;20028;-88
2023/11/05 07:24:50;;;;;;;0.20;0.20;;;;;;;19.42;100.00;98816.38;4996381;28;20048;-87
2023/11/05 07:27:16;;;;;;;0.20;0.20;;;;;;;19.45;100.00;98801.38;4995956;28;20030;-86
2023/11/05 07:29:44;;;;;;;0.20;0.20;;;;;;;19.25;100.00;98762.97;4996625;28;20367;-87
2023/11/05 07:32:10;;;;;;;0.20;0.20;;;;;;;19.50;100.00;98804.41;4994824;28;20116;-87
2023/11/05 07:34:35;;;;;;;0.20;0.20;;;;;;;19.46;100.00;98786.03;4995752;28;20065;-86
2023/11/05 07:37:01;;;;;;;0.28;0.28;;;;;;;19.65;100.00;98801.88;4995234;28;20026;-87
2023/11/05 07:39:26;;;;;;;0.20;0.20;;;;;;;19.57;100.00;98803.34;4995064;28;20026;-86
2023/11/05 07:41:52;;;;;;;0.20;0.20;;;;;;;19.60;100.00;98797.63;4995138;28;20022;-86
2023/11/05 07:44:18;;;;;;;0.20;0.20;;;;;;;19.72;100.00;98803.66;5008340;28;20117;-86
2023/11/05 07:46:43;;;;;;;0.20;0.20;;;;;;;19.77;100.00;98820.78;5015571;28;20112;-86
2023/11/05 07:49:09;;;;;;;0.20;0.20;;;;;;;19.72;100.00;98810.09;5015434;28;20057;-85
2023/11/05 07:51:35;;;;;;;0.20;0.20;;;;;;;19.64;100.00;98817.22;5004866;28;20033;-87
2023/11/05 07:54:02;;;;;;;0.20;0.20;;;;;;;19.70;100.00;98840.78;4998525;28;20044;-87
2023/11/05 07:56:27;;;;;;;0.20;0.20;;;;;;;19.63;100.00;98818.47;4995360;28;20017;-87
2023/11/05 07:58:53;;;;;;;0.20;0.20;;;;;;;19.56;100.00;98810.25;4995346;28;20390;-86
2023/11/05 08:01:18;;;;;;;0.20;0.20;;;;;;;19.48;100.00;98789.94;4994763;28;20026;-86
2023/11/05 08:03:43;;;;;;;0.20;0.20;;;;;;;19.52;100.00;98806.75;4994379;28;20026;-87
2023/11/05 08:06:09;;;;;;;0.20;0.20;;;;;;;19.64;100.00;98825.69;4994448;28;20034;-87
2023/11/05 08:08:34;;;;;;;0.20;0.20;;;;;;;19.69;100.00;98816.63;4994188;28;20030;-84
2023/11/05 08:11:00;;;;;;;0.20;0.20;;;;;;;19.86;100.00;98818.03;4978287;28;20034;-86
2023/11/05 08:13:25;;;;;;;0.20;0.20;;;;;;;19.74;100.00;98809.63;4993258;28;20022;-87
2023/11/05 08:15:51;;;;;;;0.20;0.20;;;;;;;19.87;100.00;98853.50;4993257;28;20030;-86
2023/11/05 08:18:17;;;;;;;0.20;0.20;;;;;;;19.67;100.00;98830.44;4993046;28;20030;-86
2023/11/05 08:20:43;;;;;;;0.20;0.20;;;;;;;19.91;100.00;98861.81;5012104;28;20025;-86
2023/11/05 08:23:08;;;;;;;0.20;0.20;;;;;;;19.71;100.00;98841.56;4994590;28;20025;-86
2023/11/05 08:25:34;;;;;;;0.20;0.20;;;;;;;19.67;100.00;98847.34;4994513;28;20522;-86
2023/11/05 08:27:59;;;;;;;0.20;0.20;;;;;;;19.64;100.00;98859.53;4994762;28;20030;-86
2023/11/05 08:30:25;;;;;;;0.20;0.20;;;;;;;19.71;99.66;98859.31;4994584;28;20433;-86
2023/11/05 08:32:51;;;;;;;0.20;0.20;;;;;;;19.59;99.58;98837.56;4994268;28;20132;-86
2023/11/05 08:35:18;;;;;;;0.20;0.20;;;;;;;19.78;100.00;98870.34;4994332;28;20406;-86
2023/11/05 08:37:46;;;;;;;0.20;0.20;;;;;;;19.73;100.00;98865.28;5011757;28;20022;-86
2023/11/05 08:40:13;;;;;;;0.20;0.20;;;;;;;19.59;100.00;98840.38;4993946;28;20068;-86
2023/11/05 08:42:39;;;;;;;0.20;0.20;;;;;;;19.71;100.00;98859.31;4993696;28;20506;-86
2023/11/05 08:45:08;;;;;;;0.20;0.20;;;;;;;19.74;99.82;98866.84;4993825;28;20090;-87
2023/11/05 08:47:34;;;;;;;0.20;0.20;;;;;;;19.75;97.65;98862.78;4993893;28;20034;-86
2023/11/05 08:50:01;;;;;;;0.20;0.20;;;;;;;19.74;97.61;98852.75;4994188;28;20033;-87
2023/11/05 08:52:27;;;;;;;0.20;0.20;;;;;;;19.70;98.45;98863.34;4993839;28;20037;-86
2023/11/05 08:54:52;;;;;;;0.20;0.20;;;;;;;19.78;97.51;98861.09;5011441;28;20437;-86
2023/11/05 08:57:17;;;;;;;0.20;0.20;;;;;;;19.91;97.80;98870.28;4994135;28;20046;-86
2023/11/05 08:59:43;;;;;;;0.20;0.20;;;;;;;19.94;98.04;98872.19;4994331;28;20033;-87
2023/11/05 09:02:09;;;;;;;0.20;0.20;;;;;;;19.92;97.49;98862.59;4993632;28;20037;-87
2023/11/05 09:04:35;;;;;;;0.20;0.20;;;;;;;19.99;98.08;98857.50;5011555;28;20040;-86
2023/11/05 09:07:01;;;;;;;0.20;0.20;;;;;;;20.05;99.17;98866.16;4996011;28;20026;-87
2023/11/05 09:09:27;;;;;;;0.20;0.20;;;;;;;19.94;100.00;98846.00;5011528;28;20034;-86
2023/11/05 09:11:52;;;;;;;0.20;0.20;;;;;;;20.09;99.96;98849.88;4993759;28;20029;-87
2023/11/05 09:14:17;;;;;;;0.20;0.20;;;;;;;20.24;99.55;98845.28;4993781;28;20121;-86
2023/11/05 09:16:43;;;;;;;0.20;0.20;;;;;;;20.40;99.80;98847.91;4993660;28;20034;-87
2023/11/05 09:19:08;;;;;;;0.20;0.20;;;;;;;20.56;99.64;98854.56;4993675;28;20064;-86
2023/11/05 09:21:35;;;;;;;0.20;0.20;;;;;;;20.62;99.70;98867.66;4994712;28;20021;-87
2023/11/05 09:24:00;;;;;;;0.20;0.20;;;;;;;20.69;98.23;98863.75;4993496;28;20116;-87
2023/11/05 09:26:26;;;;;;;0.20;0.20;;;;;;;20.67;99.12;98869.09;4993595;28;20601;-87
2023/11/05 09:28:51;;;;;;;0.20;0.20;;;;;;;20.75;96.92;98884.50;4993709;28;20029;-87
2023/11/05 09:31:17;;;;;;;0.20;0.20;;;;;;;20.73;96.98;98841.81;5011121;28;20189;-87
2023/11/05 09:33:42;;;;;;;0.20;0.20;;;;;;;20.66;97.51;98861.84;5010581;28;20533;-87
2023/11/05 09:36:08;;;;;;;0.20;0.20;;;;;;;20.86;97.35;98884.88;4993419;28;20368;-87
2023/11/05 09:38:33;;;;;;;0.20;0.20;;;;;;;20.83;98.19;98890.69;4993512;28;20486;-87
2023/11/05 09:40:59;;;;;;;0.20;0.20;;;;;;;20.88;98.70;98888.03;4993420;28;20457;-87
2023/11/05 09:43:25;;;;;;;0.20;0.20;;;;;;;21.09;97.27;98885.59;4993469;28;20033;-86
2023/11/05 09:45:52;;;;;;;0.20;0.20;;;;;;;21.31;95.62;98875.03;4993584;28;20053;-87
2023/11/05 09:48:17;;;;;;;0.20;0.20;;;;;;;21.43;96.53;98893.91;4993462;28;20076;-87
2023/11/05 09:50:44;;;;;;;0.20;0.20;;;;;;;21.13;97.22;98877.75;4993040;28;20026;-88
2023/11/05 09:53:11;;;;;;;0.20;0.20;;;;;;;21.10;99.51;98898.50;5010593;28;20022;-86
2023/11/05 09:55:41;;;;;;;0.20;0.20;;;;;;;21.07;99.67;98893.75;4995746;28;20109;-86
2023/11/05 09:58:10;;;;;;;0.20;0.20;;;;;;;21.03;100.00;98904.41;4997233;28;20032;-87
2023/11/05 10:00:37;;;;;;;0.20;0.20;;;;;;;20.96;100.00;98907.53;4996583;28;20036;-86
2023/11/05 10:03:07;;;;;;;0.20;0.20;;;;;;;20.89;100.00;98917.88;4997002;28;20058;-87
2023/11/05 10:05:44;;;;;;;0.20;0.20;;;;;;;20.83;100.00;98888.66;4997126;28;20029;-87
2023/11/05 10:08:11;;;;;;;0.20;0.20;;;;;;;20.78;100.00;98911.88;4997050;28;20215;-87
2023/11/05 10:10:38;;;;;;;0.20;0.20;;;;;;;20.59;100.00;98910.16;4996730;28;20032;-87
2023/11/05 10:13:05;;;;;;;0.20;0.20;;;;;;;20.59;100.00;98908.13;4996682;28;20440;-86
2023/11/05 10:15:34;;;;;;;0.20;0.20;;;;;;;20.54;100.00;98930.53;4996748;28;20174;-87
2023/11/05 10:18:00;;;;;;;0.20;0.20;;;;;;;20.45;100.00;98910.66;4996882;28;20089;-87
2023/11/05 10:20:27;;;;;;;0.20;0.20;;;;;;;20.28;100.00;98905.22;5013995;28;20026;-87
2023/11/05 10:23:02;;;;;;;0.20;0.20;;;;;;;20.36;100.00;98923.50;4996836;28;20053;-87
2023/11/05 10:25:28;;;;;;;0.20;0.20;;;;;;;20.24;100.00;98918.72;5014158;28;20099;-87
2023/11/05 10:27:54;;;;;;;0.20;0.20;;;;;;;20.33;100.00;98920.78;4996442;28;20034;-87
2023/11/05 10:30:21;;;;;;;0.20;0.20;;;;;;;20.21;100.00;98896.25;4996359;28;20022;-87
2023/11/05 10:32:49;;;;;;;0.20;0.20;;;;;;;20.44;100.00;98897.81;4996700;28;20058;-86
2023/11/05 10:35:20;;;;;;;0.20;0.20;;;;;;;20.64;100.00;98912.41;4996995;28;20025;-87
2023/11/05 10:37:49;;;;;;;0.20;0.20;;;;;;;20.87;100.00;98899.78;5014381;28;20113;-87
2023/11/05 10:40:16;;;;;;;0.20;0.20;;;;;;;21.00;100.00;98899.72;4996424;28;20056;-87
2023/11/05 10:42:44;;;;;;;0.20;0.20;;;;;;;20.91;100.00;98892.75;4996874;28;20034;-86
2023/11/05 10:45:14;;;;;;;0.20;0.20;;;;;;;20.53;100.00;98887.38;4998307;28;20049;-87
2023/11/05 10:47:40;;;;;;;0.20;0.20;;;;;;;20.72;100.00;98899.59;5004521;28;20056;-86
2023/11/05 10:50:22;;;;;;;0.20;0.20;;;;;;;20.64;100.00;98906.75;5020976;28;20042;-88
2023/11/05 10:52:51;;;;;;;0.20;0.20;;;;;;;20.51;100.00;98898.38;5014581;28;20485;-87
2023/11/05 10:55:17;;;;;;;0.20;0.20;;;;;;;20.72;100.00;98910.88;5013715;28;20483;-87
2023/11/05 10:57:47;;;;;;;0.20;0.20;;;;;;;20.98;100.00;98907.84;4995823;28;20026;-87
2023/11/05 11:00:15;;;;;;;0.20;0.20;;;;;;;21.09;100.00;98897.72;4995906;28;20030;-87
2023/11/05 11:02:42;;;;;;;0.20;0.20;;;;;;;21.01;100.00;98864.53;4995657;28;20022;-87
2023/11/05 11:05:13;;;;;;;0.20;0.20;;;;;;;21.45;100.00;98884.94;4995285;28;20030;-87
2023/11/05 11:07:42;;;;;;;0.20;0.20;;;;;;;21.50;100.00;98892.81;5012135;28;20504;-86
2023/11/05 11:10:11;;;;;;;0.20;0.20;;;;;;;21.44;100.00;98870.00;5013251;28;20397;-87
2023/11/05 11:12:38;;;;;;;0.20;0.20;;;;;;;21.33;100.00;98891.53;4995658;28;20088;-87
2023/11/05 11:15:07;;;;;;;0.20;0.20;;;;;;;21.70;100.00;98895.22;4995592;28;20033;-87
2023/11/05 11:17:37;;;;;;;0.20;0.20;;;;;;;21.39;100.00;98870.63;4997711;28;20116;-86
2023/11/05 11:20:16;;;;;;;0.20;0.20;;;;;;;21.24;100.00;98869.63;5013283;28;20117;-86
2023/11/05 11:22:45;;;;;;;0.20;0.20;;;;;;;21.11;100.00;98880.28;4991628;28;20033;-86
2023/11/05 11:25:12;;;;;;;0.20;0.20;;;;;;;20.97;100.00;98917.59;4994570;28;20101;-87
2023/11/05 11:27:41;;;;;;;0.20;0.20;;;;;;;21.04;100.00;98917.31;5012987;28;20037;-86
2023/11/05 11:30:09;;;;;;;0.20;0.20;;;;;;;20.87;100.00;98886.44;4995480;28;20084;-87
2023/11/05 11:32:38;;;;;;;0.20;0.20;;;;;;;20.63;100.00;98882.56;4995096;28;20038;-87
2023/11/05 11:35:04;;;;;;;0.20;0.20;;;;;;;20.38;100.00;98923.81;5013003;28;20532;-86
2023/11/05 11:37:30;;;;;;;0.20;0.20;;;;;;;19.55;100.00;98921.50;5011911;28;20105;-87
2023/11/05 12:08:55;;;;;;;0.20;0.20;;;;;;;18.68;100.00;98953.63;5014533;28;20169;-87
2023/11/05 12:11:22;;;;;;;0.20;0.20;;;;;;;18.70;100.00;98965.25;4994555;28;20080;-86
2023/11/05 12:13:48;;;;;;;0.20;0.20;;;;;;;18.54;100.00;98931.50;4995990;28;20389;-87
2023/11/05 12:16:15;;;;;;;0.20;0.20;;;;;;;18.59;100.00;98940.19;5011109;28;20036;-87
2023/11/05 12:18:42;;;;;;;0.20;0.20;;;;;;;18.68;100.00;98950.81;5010459;28;20367;-86
2023/11/05 12:21:09;;;;;;;0.20;0.20;;;;;;;18.68;100.00;98967.72;5012218;28;20489;-88
2023/11/05 12:27:56;;;;;;;0.20;0.20;;;;;;;18.24;100.00;98961.69;5155507;23;20054;-82
2023/11/05 12:33:49;;;;;;;0.20;0.20;;;;;;;18.16;100.00;98960.28;5029904;28;20188;-85
2023/11/05 12:47:28;;;;;;;0.20;0.20;;;;;;;17.80;100.00;98940.78;5020175;28;20044;-86
2023/11/05 12:49:54;;;;;;;0.20;0.20;;;;;;;17.98;100.00;98949.53;4994575;28;20049;-87
2023/11/05 12:52:20;;;;;;;0.20;0.20;;;;;;;18.19;100.00;98976.31;4994410;28;20088;-87
2023/11/05 12:54:46;;;;;;;0.20;0.20;;;;;;;18.11;100.00;98946.78;4994439;28;20033;-87
2023/11/05 12:57:16;;;;;;;0.20;0.20;;;;;;;18.32;100.00;98957.47;4994316;28;20018;-87
2023/11/05 12:59:42;;;;;;;0.20;0.20;;;;;;;18.40;100.00;98980.56;4994835;28;20036;-85
2023/11/05 13:02:10;;;;;;;0.20;0.20;;;;;;;18.37;100.00;98955.31;4994228;28;20026;-86
2023/11/05 13:04:35;;;;;;;0.20;0.20;;;;;;;18.47;100.00;98959.84;4993798;28;20026;-87
2023/11/05 13:07:02;;;;;;;0.20;0.20;;;;;;;18.47;100.00;98954.22;4993719;28;20029;-87
2023/11/05 13:09:28;;;;;;;0.20;0.20;;;;;;;18.59;100.00;98990.09;4993899;28;20457;-86
2023/11/05 13:11:54;;;;;;;0.20;0.20;;;;;;;18.42;100.00;98974.47;4993613;28;20112;-86
2023/11/05 13:14:21;;;;;;;0.20;0.20;;;;;;;18.46;100.00;99011.78;4993390;28;20018;-86
2023/11/05 13:16:47;;;;;;;0.20;0.20;;;;;;;18.34;100.00;98990.78;4993438;28;20069;-86
2023/11/05 13:19:12;;;;;;;0.20;0.20;;;;;;;18.19;100.00;98996.03;4993414;28;20396;-86
2023/11/05 13:21:38;;;;;;;0.20;0.20;;;;;;;18.23;100.00;99007.19;4993844;28;20478;-87
2023/11/05 13:24:04;;;;;;;0.20;0.20;;;;;;;18.21;100.00;99035.78;4994268;28;20022;-86
2023/11/05 13:26:29;;;;;;;0.20;0.20;;;;;;;18.17;100.00;99043.53;4996425;28;20069;-87
2023/11/05 13:28:56;;;;;;;0.20;0.20;;;;;;;17.98;100.00;99027.53;5012013;28;20059;-86
2023/11/05 13:31:22;;;;;;;0.20;0.20;;;;;;;18.20;100.00;99067.97;4999794;28;20478;-86
2023/11/05 13:33:47;;;;;;;0.20;0.20;;;;;;;18.04;100.00;99053.91;4999724;28;20033;-86
2023/11/05 13:36:13;;;;;;;0.20;0.20;;;;;;;18.11;100.00;99058.56;4999915;28;20018;-87
2023/11/05 13:38:38;;;;;;;0.20;0.20;;;;;;;18.00;100.00;99075.72;4999849;28;20482;-87
2023/11/05 13:41:04;;;;;;;0.20;0.20;;;;;;;17.94;100.00;99055.75;5017514;28;20064;-86
2023/11/05 13:43:30;;;;;;;0.20;0.20;;;;;;;18.06;100.00;99071.19;5017264;28;21572;-86
2023/11/05 13:48:59;;;;;;;0.20;0.20;;;;;;;17.79;98.35;99072.22;5021726;28;20417;-85
2023/11/05 13:51:25;;;;;;;0.20;0.20;;;;;;;17.82;99.29;99078.19;5000283;28;20026;-87
2023/11/05 13:53:53;;;;;;;0.20;0.20;;;;;;;18.14;99.81;99111.97;5000181;28;20452;-86
2023/11/05 13:56:19;;;;;;;0.20;0.20;;;;;;;18.13;100.00;99099.13;4999539;28;20390;-86
2023/11/05 13:58:46;;;;;;;0.20;0.20;;;;;;;18.13;100.00;99113.22;4999807;28;20110;-86
2023/11/05 14:01:17;;;;;;;0.20;0.20;;;;;;;17.92;100.00;99114.53;4999893;28;20042;-87
2023/11/05 14:03:43;;;;;;;0.30;0.30;;;;;;;17.67;100.00;99122.72;4999577;28;20030;-87
2023/11/05 14:06:09;;;;;;;0.20;0.20;;;;;;;17.58;100.00;99134.56;4999546;28;20032;-86
2023/11/05 14:08:34;;;;;;;0.20;0.20;;;;;;;17.59;100.00;99110.06;4999483;28;20112;-86
2023/11/05 14:11:00;;;;;;;0.20;0.20;;;;;;;17.48;99.73;99099.84;4999374;28;20026;-86
2023/11/05 14:13:26;;;;;;;0.20;0.20;;;;;;;17.42;93.10;99100.78;4999476;28;20370;-87
2023/11/05 14:15:51;;;;;;;0.20;0.20;;;;;;;17.44;98.17;99095.50;4999818;28;20022;-86
2023/11/05 14:18:17;;;;;;;0.20;0.20;;;;;;;17.27;100.00;99115.16;4999348;28;20017;-86
2023/11/05 14:20:43;;;;;;;0.20;0.20;;;;;;;17.23;100.00;99128.47;4999130;28;20120;-86
2023/11/05 14:23:11;;;;;;;0.20;0.20;;;;;;;16.98;100.00;99116.94;5017121;28;20021;-86
2023/11/05 14:25:38;;;;;;;0.20;0.20;;;;;;;17.02;100.00;99140.16;4999603;28;20032;-86
2023/11/05 14:28:04;;;;;;;0.20;0.20;;;;;;;17.05;100.00;99136.50;4999147;28;20052;-86
2023/11/05 14:30:29;;;;;;;0.20;0.20;;;;;;;16.99;100.00;99141.00;4999415;28;20442;-86
2023/11/05 14:32:55;;;;;;;0.20;0.20;;;;;;;16.85;100.00;99130.06;4999232;28;20363;-86
2023/11/05 14:35:21;;;;;;;0.20;0.20;;;;;;;16.57;100.00;99098.47;4999407;28;20121;-86
2023/11/05 14:37:47;;;;;;;0.20;0.20;;;;;;;16.67;100.00;99142.41;4999385;28;20052;-86
2023/11/05 14:40:13;;;;;;;0.20;0.20;;;;;;;16.88;100.00;99162.91;4998904;28;20125;-86
2023/11/05 14:42:39;;;;;;;0.20;0.20;;;;;;;17.02;100.00;99154.22;4996192;28;20046;-85
2023/11/05 14:45:07;;;;;;;0.20;0.20;;;;;;;16.87;100.00;99133.22;4995948;28;20046;-86
2023/11/05 14:47:34;;;;;;;0.20;0.20;;;;;;;17.05;100.00;99161.78;5013709;28;20075;-86
2023/11/05 14:49:59;;;;;;;0.20;0.20;;;;;;;17.02;100.00;99140.94;4995925;28;20112;-86
2023/11/05 14:52:24;;;;;;;0.20;0.20;;;;;;;16.96;100.00;99127.84;4995841;28;20489;-86
2023/11/05 14:54:50;;;;;;;0.20;0.20;;;;;;;17.09;100.00;99151.25;4996177;28;20674;-86
2023/11/05 14:57:15;;;;;;;0.20;0.20;;;;;;;16.85;100.00;99124.44;5013449;28;20401;-86
2023/11/05 14:59:41;;;;;;;0.20;0.20;;;;;;;17.08;100.00;99148.88;5013478;28;20478;-86
2023/11/05 15:02:06;;;;;;;0.20;0.20;;;;;;;17.13;100.00;99157.59;4996333;28;20080;-86
2023/11/05 15:04:33;;;;;;;0.20;0.20;;;;;;;17.09;100.00;99156.88;5013573;28;20026;-86
2023/11/05 15:06:58;;;;;;;0.20;0.20;;;;;;;17.05;100.00;99156.16;5017921;28;20034;-86
2023/11/05 15:09:24;;;;;;;0.20;0.20;;;;;;;16.95;100.00;99145.94;4997000;28;20034;-86
2023/11/05 15:11:49;;;;;;;0.20;0.20;;;;;;;17.14;100.00;99170.41;4995763;28;20449;-86
2023/11/05 15:14:15;;;;;;;0.20;0.20;;;;;;;17.06;100.00;99151.34;4995957;28;20033;-86
2023/11/05 15:16:43;;;;;;;0.20;0.20;;;;;;;17.00;100.00;99163.06;4995828;28;20339;-86
2023/11/05 15:19:09;;;;;;;0.20;0.20;;;;;;;17.05;100.00;99161.00;4995238;28;20030;-86
2023/11/05 15:21:38;;;;;;;0.20;0.20;;;;;;;17.12;100.00;99178.50;4995028;28;20034;-86
2023/11/05 15:24:04;;;;;;;0.20;0.20;;;;;;;17.06;100.00;99173.81;4995140;28;20509;-86
2023/11/05 15:26:29;;;;;;;0.20;0.20;;;;;;;17.00;100.00;99165.09;4996084;28;20038;-86
2023/11/05 15:28:56;;;;;;;0.20;0.20;;;;;;;17.09;100.00;99170.91;4996462;28;20026;-86
2023/11/05 15:31:23;;;;;;;0.20;0.20;;;;;;;17.16;100.00;99187.66;4995353;28;20029;-85
2023/11/05 15:33:53;;;;;;;0.20;0.20;;;;;;;17.12;100.00;99181.31;5012680;28;20022;-85
2023/11/05 15:36:19;;;;;;;0.20;0.20;;;;;;;17.13;100.00;99185.69;4995222;28;20018;-86
2023/11/05 15:38:46;;;;;;;0.20;0.20;;;;;;;17.09;100.00;99190.59;5012775;28;20061;-86
2023/11/05 15:41:12;;;;;;;0.20;0.20;;;;;;;17.02;100.00;99183.09;4995194;28;20068;-86
2023/11/05 15:43:37;;;;;;;0.20;0.20;;;;;;;17.14;100.00;99206.97;4994114;28;20478;-85
2023/11/05 15:46:05;;;;;;;0.20;0.20;;;;;;;16.86;100.00;99183.00;4995049;28;20037;-86
2023/11/05 15:48:30;;;;;;;0.20;0.20;;;;;;;16.86;100.00;99201.88;4994549;28;20117;-86
2023/11/05 15:50:56;;;;;;;0.20;0.20;;;;;;;16.78;100.00;99195.63;4994585;28;20389;-86
2023/11/05 15:53:21;;;;;;;0.20;0.20;;;;;;;16.63;100.00;99203.47;4994137;28;20297;-85
2023/11/05 15:55:47;;;;;;;0.20;0.20;;;;;;;16.61;100.00;99222.72;4994522;28;20104;-85
2023/11/05 15:58:12;;;;;;;0.20;0.20;;;;;;;16.59;100.00;99218.78;4994434;28;20046;-85
2023/11/05 16:00:38;;;;;;;0.20;0.20;;;;;;;16.60;100.00;99226.75;5012006;28;20022;-86
2023/11/05 16:03:03;;;;;;;0.20;0.20;;;;;;;16.54;100.00;99214.44;4994598;28;20048;-86
2023/11/05 16:05:30;;;;;;;0.25;0.25;;;;;;;16.46;100.00;99210.19;4994366;28;20025;-86
2023/11/05 16:07:56;;;;;;;0.20;0.20;;;;;;;16.67;100.00;99240.72;5012096;28;20025;-86
2023/11/05 16:10:25;;;;;;;0.20;0.20;;;;;;;16.57;100.00;99236.06;4994388;28;20057;-85
2023/11/05 16:12:53;;;;;;;0.20;0.20;;;;;;;16.52;100.00;99225.31;5012111;28;20032;-85
2023/11/05 16:15:19;;;;;;;0.20;0.20;;;;;;;16.48;100.00;99218.97;4994275;28;20080;-85
2023/11/05 16:17:44;;;;;;;0.20;0.20;;;;;;;16.66;100.00;99257.97;5011575;28;20025;-86
2023/11/05 16:20:11;;;;;;;0.20;0.20;;;;;;;16.51;100.00;99237.75;4994039;28;20029;-85
2023/11/05 16:22:37;;;;;;;0.20;0.20;;;;;;;16.55;100.00;99254.53;5011688;28;20025;-86
2023/11/05 16:25:04;;;;;;;0.20;0.20;;;;;;;16.34;100.00;99233.22;4994141;28;20030;-86
2023/11/05 16:27:30;;;;;;;0.20;0.20;;;;;;;16.51;100.00;99263.00;5011931;28;20049;-86
2023/11/05 16:29:55;;;;;;;0.20;0.20;;;;;;;16.48;100.00;99275.09;4994074;28;20438;-86
2023/11/05 16:32:21;;;;;;;0.20;0.20;;;;;;;16.37;100.00;99269.66;4993962;28;20026;-86
2023/11/05 16:34:47;;;;;;;0.20;0.20;;;;;;;16.40;100.00;99280.03;4994056;28;20022;-86
2023/11/05 16:37:13;;;;;;;0.20;0.20;;;;;;;16.39;100.00;99284.06;4993792;28;20030;-86
2023/11/05 16:39:40;;;;;;;0.20;0.20;;;;;;;16.36;100.00;99278.50;5011529;28;20040;-86
2023/11/05 16:42:06;;;;;;;0.20;0.20;;;;;;;16.12;100.00;99250.38;4994079;28;20100;-86
2023/11/05 16:44:32;;;;;;;0.20;0.20;;;;;;;16.25;100.00;99273.06;4993333;28;20054;-86
2023/11/05 16:46:58;;;;;;;0.20;0.20;;;;;;;16.29;100.00;99284.22;4993931;28;20296;-86
2023/11/05 16:49:25;;;;;;;0.20;0.20;;;;;;;16.26;100.00;99290.69;4993842;28;20029;-86
2023/11/05 16:51:51;;;;;;;0.20;0.20;;;;;;;16.13;100.00;99291.25;5011313;28;20389;-86
2023/11/05 16:54:17;;;;;;;0.20;0.20;;;;;;;16.09;100.00;99282.09;4993802;28;20018;-86
2023/11/05 16:56:50;;;;;;;0.20;0.20;;;;;;;16.19;100.00;99314.84;5011460;28;20033;-86
2023/11/05 16:59:16;;;;;;;0.20;0.20;;;;;;;16.20;100.00;99305.19;5011436;28;20107;-86
2023/11/05 17:01:42;;;;;;;0.20;0.20;;;;;;;16.31;100.00;99332.31;4993741;28;20026;-86
2023/11/05 17:04:08;;;;;;;0.20;0.20;;;;;;;16.17;100.00;99327.69;5010165;28;20269;-86
2023/11/05 17:06:37;;;;;;;0.20;0.20;;;;;;;16.21;100.00;99329.22;4993898;28;20025;-86
2023/11/05 17:09:04;;;;;;;0.20;0.20;;;;;;;16.03;100.00;99311.81;4993866;28;20056;-86
2023/11/05 17:11:29;;;;;;;0.20;0.20;;;;;;;16.01;100.00;99319.09;4993131;28;20409;-86
2023/11/05 17:13:55;;;;;;;0.20;0.20;;;;;;;16.12;100.00;99342.97;4993528;28;20026;-86
2023/11/05 17:16:20;;;;;;;0.20;0.20;;;;;;;16.09;100.00;99335.41;5011341;28;20029;-86
2023/11/05 17:18:46;;;;;;;0.20;0.20;;;;;;;16.04;100.00;99341.50;5010709;28;20026;-86
2023/11/05 17:21:12;;;;;;;0.20;0.20;;;;;;;15.99;100.00;99344.75;4993234;28;20409;-86
2023/11/05 17:23:37;;;;;;;0.20;0.20;;;;;;;15.99;100.00;99336.34;4993328;28;20490;-86
2023/11/05 17:26:03;;;;;;;0.20;0.20;;;;;;;15.97;100.00;99347.97;4993350;28;20397;-86
2023/11/05 17:28:28;;;;;;;0.20;0.20;;;;;;;16.03;100.00;99356.72;4993483;28;20025;-86
2023/11/05 17:30:54;;;;;;;0.20;0.20;;;;;;;16.10;100.00;99390.31;5003560;28;20097;-86
2023/11/05 17:33:19;;;;;;;0.20;0.20;;;;;;;15.97;100.00;99383.66;4996622;28;20029;-86
2023/11/05 17:35:45;;;;;;;0.20;0.20;;;;;;;15.73;100.00;99359.50;5011057;28;20445;-86
2023/11/05 17:38:11;;;;;;;0.20;0.20;;;;;;;16.01;100.00;99403.25;4993308;28;20030;-86
2023/11/05 17:40:37;;;;;;;0.20;0.20;;;;;;;15.98;100.00;99399.28;5010834;28;20505;-86
2023/11/05 17:43:03;;;;;;;0.20;0.20;;;;;;;16.09;100.00;99407.59;4992799;28;20032;-86
2023/11/05 17:45:29;;;;;;;0.20;0.20;;;;;;;16.23;100.00;99416.59;4992292;28;20669;-86
2023/11/05 17:47:54;;;;;;;0.20;0.20;;;;;;;16.26;100.00;99417.00;4992089;28;20116;-86
2023/11/05 17:50:20;;;;;;;0.20;0.20;;;;;;;16.29;100.00;99421.75;4992578;28;20030;-86
2023/11/05 17:52:45;;;;;;;0.20;0.20;;;;;;;16.18;100.00;99416.28;4992158;28;20466;-86
2023/11/05 17:55:10;;;;;;;0.20;0.20;;;;;;;16.13;100.00;99417.53;5010009;28;20029;-86
2023/11/05 17:57:36;;;;;;;0.20;0.20;;;;;;;16.22;100.00;99420.63;4992375;28;20482;-86
2023/11/05 18:00:05;;;;;;;0.20;0.20;;;;;;;16.28;100.00;99439.81;4991769;28;20030;-86
2023/11/05 18:02:30;;;;;;;0.20;0.20;;;;;;;16.28;100.00;99431.38;4992224;28;20034;-86
2023/11/05 18:04:56;;;;;;;0.20;0.20;;;;;;;16.26;100.00;99436.63;4991483;28;20022;-86
2023/11/05 18:07:21;;;;;;;0.20;0.20;;;;;;;16.17;100.00;99412.66;4991765;28;20019;-86
2023/11/05 18:09:48;;;;;;;0.20;0.20;;;;;;;16.30;100.00;99446.63;4992066;28;20029;-86
2023/11/05 18:12:13;;;;;;;0.20;0.20;;;;;;;16.43;100.00;99456.06;5009652;28;20026;-86
2023/11/05 18:14:41;;;;;;;0.20;0.20;;;;;;;16.30;100.00;99429.78;5009337;28;20037;-86
2023/11/05 18:17:07;;;;;;;0.20;0.20;;;;;;;16.46;100.00;99443.22;4995001;28;20143;-86
2023/11/05 18:19:32;;;;;;;0.20;0.20;;;;;;;16.20;100.00;99419.47;4994852;28;20029;-86
2023/11/05 18:21:59;;;;;;;0.20;0.20;;;;;;;16.46;100.00;99440.41;4995333;28;20025;-86
2023/11/05 18:24:27;;;;;;;0.20;0.20;;;;;;;16.32;99.50;99404.09;4995522;28;20096;-87
2023/11/05 18:26:52;;;;;;;0.20;0.20;;;;;;;16.54;97.78;99439.06;4996088;28;20148;-83
2023/11/05 18:29:18;;;;;;;0.20;0.20;;;;;;;16.36;98.23;99407.66;4980500;28;20117;-87
2023/11/05 18:31:43;;;;;;;0.20;0.20;;;;;;;16.42;98.14;99439.66;5012850;28;20026;-87
2023/11/05 18:34:09;;;;;;;0.20;0.20;;;;;;;16.56;97.82;99444.25;4995535;28;20030;-87